sensor_id;sensor_type;location;lat;lon;timestamp;P1;durP1;ratioP1;P2;durP2;ratioP2
86403;SDS011;77050;48.738;9.302;2024-03-22T00:00:32;13.35;;;8.35;;
86403;SDS011;77050;48.738;9.302;2024-03-22T00:02:57;13.15;;;7.70;;
86403;SDS011;77050;48.738;9.302;2024-03-22T00:05:22;12.77;;;8.20;;
86403;SDS011;77050;48.738;9.302;2024-03-22T00:07:48;12.50;;;8.25;;
86403;SDS011;77050;48.738;9.302;2024-03-22T00:10:13;10.52;;;7.40;;
86403;SDS011;77050;48.738;9.302;2024-03-22T00:12:39;12.38;;;8.32;;
86403;SDS011;77050;48.738;9.302;2024-03-22T00:15:05;13.25;;;8.23;;
86403;SDS011;77050;48.738;9.302;2024-03-22T00:17:30;11.93;;;8.63;;
86403;SDS011;77050;48.738;9.302;2024-03-22T00:19:56;11.27;;;7.80;;
86403;SDS011;77050;48.738;9.302;2024-03-22T00:22:21;11.57;;;7.72;;
86403;SDS011;77050;48.738;9.302;2024-03-22T00:24:47;12.40;;;8.43;;
86403;SDS011;77050;48.738;9.302;2024-03-22T00:27:12;15.25;;;9.13;;
86403;SDS011;77050;48.738;9.302;2024-03-22T00:29:38;13.87;;;8.97;;
86403;SDS011;77050;48.738;9.302;2024-03-22T00:32:03;13.80;;;8.20;;
86403;SDS011;77050;48.738;9.302;2024-03-22T00:34:29;15.10;;;8.63;;
86403;SDS011;77050;48.738;9.302;2024-03-22T00:44:16;15.30;;;8.85;;
86403;SDS011;77050;48.738;9.302;2024-03-22T00:50:59;12.38;;;7.38;;
86403;SDS011;77050;48.738;9.302;2024-03-22T00:53:25;15.68;;;8.82;;
86403;SDS011;77050;48.738;9.302;2024-03-22T00:56:04;13.20;;;8.40;;
86403;SDS011;77050;48.738;9.302;2024-03-22T00:58:32;15.80;;;8.52;;
86403;SDS011;77050;48.738;9.302;2024-03-22T01:01:06;15.20;;;8.43;;
86403;SDS011;77050;48.738;9.302;2024-03-22T01:03:31;12.18;;;8.23;;
86403;SDS011;77050;48.738;9.302;2024-03-22T01:05:57;15.13;;;8.93;;
86403;SDS011;77050;48.738;9.302;2024-03-22T01:08:22;11.80;;;9.18;;
86403;SDS011;77050;48.738;9.302;2024-03-22T01:10:47;12.50;;;8.07;;
86403;SDS011;77050;48.738;9.302;2024-03-22T01:13:13;17.42;;;8.98;;
86403;SDS011;77050;48.738;9.302;2024-03-22T01:15:38;13.77;;;8.30;;
86403;SDS011;77050;48.738;9.302;2024-03-22T01:18:04;13.55;;;9.13;;
86403;SDS011;77050;48.738;9.302;2024-03-22T01:20:29;16.30;;;9.50;;
86403;SDS011;77050;48.738;9.302;2024-03-22T01:22:56;14.63;;;9.32;;
86403;SDS011;77050;48.738;9.302;2024-03-22T01:25:21;13.52;;;8.30;;
86403;SDS011;77050;48.738;9.302;2024-03-22T01:27:47;14.45;;;8.48;;
86403;SDS011;77050;48.738;9.302;2024-03-22T01:30:13;13.13;;;8.02;;
86403;SDS011;77050;48.738;9.302;2024-03-22T01:32:38;12.88;;;7.90;;
86403;SDS011;77050;48.738;9.302;2024-03-22T01:35:04;17.25;;;9.65;;
86403;SDS011;77050;48.738;9.302;2024-03-22T01:37:29;14.80;;;9.35;;
86403;SDS011;77050;48.738;9.302;2024-03-22T01:39:55;12.10;;;8.00;;
86403;SDS011;77050;48.738;9.302;2024-03-22T01:42:20;16.88;;;11.23;;
86403;SDS011;77050;48.738;9.302;2024-03-22T01:44:45;14.45;;;9.40;;
86403;SDS011;77050;48.738;9.302;2024-03-22T01:47:11;15.65;;;8.65;;
86403;SDS011;77050;48.738;9.302;2024-03-22T01:49:36;13.75;;;9.32;;
86403;SDS011;77050;48.738;9.302;2024-03-22T01:52:02;16.20;;;8.68;;
86403;SDS011;77050;48.738;9.302;2024-03-22T01:54:28;17.75;;;10.13;;
86403;SDS011;77050;48.738;9.302;2024-03-22T01:56:55;15.00;;;9.80;;
86403;SDS011;77050;48.738;9.302;2024-03-22T01:59:20;13.93;;;9.43;;
86403;SDS011;77050;48.738;9.302;2024-03-22T02:01:46;14.25;;;8.88;;
86403;SDS011;77050;48.738;9.302;2024-03-22T02:04:12;14.23;;;9.45;;
86403;SDS011;77050;48.738;9.302;2024-03-22T02:06:37;12.43;;;9.27;;
86403;SDS011;77050;48.738;9.302;2024-03-22T02:09:02;14.65;;;9.18;;
86403;SDS011;77050;48.738;9.302;2024-03-22T02:11:30;13.23;;;7.95;;
86403;SDS011;77050;48.738;9.302;2024-03-22T02:13:56;17.65;;;8.38;;
86403;SDS011;77050;48.738;9.302;2024-03-22T02:16:22;14.10;;;9.02;;
86403;SDS011;77050;48.738;9.302;2024-03-22T02:18:47;12.50;;;8.50;;
86403;SDS011;77050;48.738;9.302;2024-03-22T02:21:14;13.40;;;8.85;;
86403;SDS011;77050;48.738;9.302;2024-03-22T02:23:40;13.07;;;9.45;;
86403;SDS011;77050;48.738;9.302;2024-03-22T02:26:06;14.77;;;8.95;;
86403;SDS011;77050;48.738;9.302;2024-03-22T02:28:34;15.90;;;9.55;;
86403;SDS011;77050;48.738;9.302;2024-03-22T02:31:01;13.50;;;8.98;;
86403;SDS011;77050;48.738;9.302;2024-03-22T02:33:26;17.10;;;9.15;;
86403;SDS011;77050;48.738;9.302;2024-03-22T02:35:52;14.05;;;8.27;;
86403;SDS011;77050;48.738;9.302;2024-03-22T02:41:49;12.15;;;8.07;;
86403;SDS011;77050;48.738;9.302;2024-03-22T02:44:37;13.70;;;8.48;;
86403;SDS011;77050;48.738;9.302;2024-03-22T02:47:07;11.80;;;8.38;;
86403;SDS011;77050;48.738;9.302;2024-03-22T02:49:33;14.68;;;10.05;;
86403;SDS011;77050;48.738;9.302;2024-03-22T02:51:58;13.00;;;8.73;;
86403;SDS011;77050;48.738;9.302;2024-03-22T02:54:24;13.45;;;8.20;;
86403;SDS011;77050;48.738;9.302;2024-03-22T02:56:49;13.73;;;8.37;;
86403;SDS011;77050;48.738;9.302;2024-03-22T02:59:15;13.48;;;8.65;;
86403;SDS011;77050;48.738;9.302;2024-03-22T03:01:40;12.70;;;8.93;;
86403;SDS011;77050;48.738;9.302;2024-03-22T03:04:06;14.32;;;9.70;;
86403;SDS011;77050;48.738;9.302;2024-03-22T03:06:31;15.13;;;9.55;;
86403;SDS011;77050;48.738;9.302;2024-03-22T03:08:56;16.60;;;8.70;;
86403;SDS011;77050;48.738;9.302;2024-03-22T03:11:22;15.00;;;8.57;;
86403;SDS011;77050;48.738;9.302;2024-03-22T03:13:47;13.90;;;9.88;;
86403;SDS011;77050;48.738;9.302;2024-03-22T03:16:14;17.70;;;9.87;;
86403;SDS011;77050;48.738;9.302;2024-03-22T03:18:40;15.23;;;9.00;;
86403;SDS011;77050;48.738;9.302;2024-03-22T03:21:06;15.30;;;9.90;;
86403;SDS011;77050;48.738;9.302;2024-03-22T03:23:31;18.38;;;10.02;;
86403;SDS011;77050;48.738;9.302;2024-03-22T03:25:57;15.20;;;8.67;;
86403;SDS011;77050;48.738;9.302;2024-03-22T03:28:22;15.07;;;8.73;;
86403;SDS011;77050;48.738;9.302;2024-03-22T03:30:47;20.83;;;9.97;;
86403;SDS011;77050;48.738;9.302;2024-03-22T03:33:12;11.87;;;9.07;;
86403;SDS011;77050;48.738;9.302;2024-03-22T03:35:38;15.57;;;9.33;;
86403;SDS011;77050;48.738;9.302;2024-03-22T03:38:03;17.30;;;8.90;;
86403;SDS011;77050;48.738;9.302;2024-03-22T03:40:29;15.30;;;10.15;;
86403;SDS011;77050;48.738;9.302;2024-03-22T03:42:54;13.95;;;9.52;;
86403;SDS011;77050;48.738;9.302;2024-03-22T03:45:19;15.57;;;9.80;;
86403;SDS011;77050;48.738;9.302;2024-03-22T03:47:45;14.98;;;10.27;;
86403;SDS011;77050;48.738;9.302;2024-03-22T03:50:11;11.82;;;7.63;;
86403;SDS011;77050;48.738;9.302;2024-03-22T03:52:37;16.38;;;8.50;;
86403;SDS011;77050;48.738;9.302;2024-03-22T03:55:02;13.87;;;8.77;;
86403;SDS011;77050;48.738;9.302;2024-03-22T03:57:28;13.93;;;8.45;;
86403;SDS011;77050;48.738;9.302;2024-03-22T03:59:54;16.40;;;9.83;;
86403;SDS011;77050;48.738;9.302;2024-03-22T04:02:19;19.33;;;10.45;;
86403;SDS011;77050;48.738;9.302;2024-03-22T04:04:44;18.83;;;10.20;;
86403;SDS011;77050;48.738;9.302;2024-03-22T04:07:10;18.00;;;9.57;;
86403;SDS011;77050;48.738;9.302;2024-03-22T04:09:35;13.60;;;8.57;;
86403;SDS011;77050;48.738;9.302;2024-03-22T04:12:01;20.48;;;10.68;;
86403;SDS011;77050;48.738;9.302;2024-03-22T04:14:26;10.53;;;6.37;;
86403;SDS011;77050;48.738;9.302;2024-03-22T04:16:52;16.20;;;9.25;;
86403;SDS011;77050;48.738;9.302;2024-03-22T04:19:19;16.45;;;10.18;;
86403;SDS011;77050;48.738;9.302;2024-03-22T04:21:45;13.98;;;9.20;;
86403;SDS011;77050;48.738;9.302;2024-03-22T04:24:10;17.38;;;9.60;;
86403;SDS011;77050;48.738;9.302;2024-03-22T04:26:35;15.55;;;9.40;;
86403;SDS011;77050;48.738;9.302;2024-03-22T04:29:01;17.67;;;8.88;;
86403;SDS011;77050;48.738;9.302;2024-03-22T04:31:26;13.23;;;8.37;;
86403;SDS011;77050;48.738;9.302;2024-03-22T04:33:51;16.83;;;9.60;;
86403;SDS011;77050;48.738;9.302;2024-03-22T04:36:17;13.10;;;8.63;;
86403;SDS011;77050;48.738;9.302;2024-03-22T04:38:42;13.30;;;8.53;;
86403;SDS011;77050;48.738;9.302;2024-03-22T04:41:07;16.83;;;10.00;;
86403;SDS011;77050;48.738;9.302;2024-03-22T04:43:33;15.33;;;9.00;;
86403;SDS011;77050;48.738;9.302;2024-03-22T04:45:58;13.60;;;9.47;;
86403;SDS011;77050;48.738;9.302;2024-03-22T04:48:30;11.88;;;7.38;;
86403;SDS011;77050;48.738;9.302;2024-03-22T04:50:55;13.73;;;9.15;;
86403;SDS011;77050;48.738;9.302;2024-03-22T04:53:21;14.00;;;8.95;;
86403;SDS011;77050;48.738;9.302;2024-03-22T04:55:49;15.52;;;9.23;;
86403;SDS011;77050;48.738;9.302;2024-03-22T04:58:23;14.60;;;9.07;;
86403;SDS011;77050;48.738;9.302;2024-03-22T05:00:55;15.93;;;9.55;;
86403;SDS011;77050;48.738;9.302;2024-03-22T05:03:29;16.65;;;9.48;;
86403;SDS011;77050;48.738;9.302;2024-03-22T05:08:34;14.88;;;8.63;;
86403;SDS011;77050;48.738;9.302;2024-03-22T05:11:00;19.75;;;10.23;;
86403;SDS011;77050;48.738;9.302;2024-03-22T05:13:28;13.73;;;8.68;;
86403;SDS011;77050;48.738;9.302;2024-03-22T05:15:53;17.48;;;9.73;;
86403;SDS011;77050;48.738;9.302;2024-03-22T05:18:19;15.73;;;10.25;;
86403;SDS011;77050;48.738;9.302;2024-03-22T05:20:47;14.75;;;9.50;;
86403;SDS011;77050;48.738;9.302;2024-03-22T05:23:12;16.50;;;10.10;;
86403;SDS011;77050;48.738;9.302;2024-03-22T05:25:38;16.90;;;10.13;;
86403;SDS011;77050;48.738;9.302;2024-03-22T05:28:04;16.58;;;9.52;;
86403;SDS011;77050;48.738;9.302;2024-03-22T05:30:29;13.33;;;9.07;;
86403;SDS011;77050;48.738;9.302;2024-03-22T05:32:54;15.30;;;9.52;;
86403;SDS011;77050;48.738;9.302;2024-03-22T05:35:20;16.45;;;9.43;;
86403;SDS011;77050;48.738;9.302;2024-03-22T05:37:49;17.75;;;9.93;;
86403;SDS011;77050;48.738;9.302;2024-03-22T05:40:15;16.08;;;9.30;;
86403;SDS011;77050;48.738;9.302;2024-03-22T05:42:41;14.68;;;9.82;;
86403;SDS011;77050;48.738;9.302;2024-03-22T05:49:02;15.95;;;10.20;;
86403;SDS011;77050;48.738;9.302;2024-03-22T05:57:31;18.77;;;10.82;;
86403;SDS011;77050;48.738;9.302;2024-03-22T05:59:57;15.27;;;9.13;;
86403;SDS011;77050;48.738;9.302;2024-03-22T06:02:22;19.80;;;10.40;;
86403;SDS011;77050;48.738;9.302;2024-03-22T06:04:48;16.90;;;10.70;;
86403;SDS011;77050;48.738;9.302;2024-03-22T06:07:13;18.77;;;11.00;;
86403;SDS011;77050;48.738;9.302;2024-03-22T06:09:39;17.85;;;10.75;;
86403;SDS011;77050;48.738;9.302;2024-03-22T06:12:14;19.27;;;10.57;;
86403;SDS011;77050;48.738;9.302;2024-03-22T06:14:40;16.40;;;10.00;;
86403;SDS011;77050;48.738;9.302;2024-03-22T06:17:13;15.40;;;8.85;;
86403;SDS011;77050;48.738;9.302;2024-03-22T06:19:41;15.93;;;9.23;;
86403;SDS011;77050;48.738;9.302;2024-03-22T06:22:07;17.27;;;8.60;;
86403;SDS011;77050;48.738;9.302;2024-03-22T06:24:32;19.33;;;8.97;;
86403;SDS011;77050;48.738;9.302;2024-03-22T06:27:12;14.57;;;8.75;;
86403;SDS011;77050;48.738;9.302;2024-03-22T06:36:31;16.25;;;10.55;;
86403;SDS011;77050;48.738;9.302;2024-03-22T06:46:28;15.13;;;10.38;;
86403;SDS011;77050;48.738;9.302;2024-03-22T06:49:06;16.35;;;9.07;;
86403;SDS011;77050;48.738;9.302;2024-03-22T06:51:39;15.05;;;9.77;;
86403;SDS011;77050;48.738;9.302;2024-03-22T06:54:12;15.40;;;10.10;;
86403;SDS011;77050;48.738;9.302;2024-03-22T06:56:38;19.30;;;11.35;;
86403;SDS011;77050;48.738;9.302;2024-03-22T06:59:06;14.05;;;9.30;;
86403;SDS011;77050;48.738;9.302;2024-03-22T07:01:31;13.68;;;8.95;;
86403;SDS011;77050;48.738;9.302;2024-03-22T07:03:57;14.65;;;9.27;;
86403;SDS011;77050;48.738;9.302;2024-03-22T07:06:22;15.70;;;10.27;;
86403;SDS011;77050;48.738;9.302;2024-03-22T07:08:47;15.90;;;9.35;;
86403;SDS011;77050;48.738;9.302;2024-03-22T07:11:13;18.52;;;10.00;;
86403;SDS011;77050;48.738;9.302;2024-03-22T07:13:38;14.60;;;8.27;;
86403;SDS011;77050;48.738;9.302;2024-03-22T07:16:04;12.63;;;9.02;;
86403;SDS011;77050;48.738;9.302;2024-03-22T07:18:29;13.27;;;9.50;;
86403;SDS011;77050;48.738;9.302;2024-03-22T07:20:55;14.82;;;9.77;;
86403;SDS011;77050;48.738;9.302;2024-03-22T07:23:20;14.82;;;9.20;;
86403;SDS011;77050;48.738;9.302;2024-03-22T07:25:46;15.17;;;8.67;;
86403;SDS011;77050;48.738;9.302;2024-03-22T07:28:13;13.63;;;8.50;;
86403;SDS011;77050;48.738;9.302;2024-03-22T07:31:18;15.18;;;9.43;;
86403;SDS011;77050;48.738;9.302;2024-03-22T07:41:39;14.00;;;8.52;;
86403;SDS011;77050;48.738;9.302;2024-03-22T07:44:15;13.35;;;8.57;;
86403;SDS011;77050;48.738;9.302;2024-03-22T08:19:03;13.32;;;8.43;;
86403;SDS011;77050;48.738;9.302;2024-03-22T11:44:43;10.38;;;3.63;;
86403;SDS011;77050;48.738;9.302;2024-03-22T11:47:08;5.63;;;3.00;;
86403;SDS011;77050;48.738;9.302;2024-03-22T11:49:39;5.32;;;2.92;;
86403;SDS011;77050;48.738;9.302;2024-03-22T12:01:04;6.70;;;3.15;;
86403;SDS011;77050;48.738;9.302;2024-03-22T12:03:30;6.20;;;3.10;;
86403;SDS011;77050;48.738;9.302;2024-03-22T12:05:55;6.25;;;2.67;;
86403;SDS011;77050;48.738;9.302;2024-03-22T12:08:22;5.28;;;3.28;;
86403;SDS011;77050;48.738;9.302;2024-03-22T12:10:48;4.60;;;3.47;;
86403;SDS011;77050;48.738;9.302;2024-03-22T12:13:13;5.38;;;3.50;;
86403;SDS011;77050;48.738;9.302;2024-03-22T12:15:38;5.00;;;3.03;;
86403;SDS011;77050;48.738;9.302;2024-03-22T12:18:04;7.60;;;2.55;;
86403;SDS011;77050;48.738;9.302;2024-03-22T12:20:29;5.25;;;2.90;;
86403;SDS011;77050;48.738;9.302;2024-03-22T12:22:55;6.50;;;3.70;;
86403;SDS011;77050;48.738;9.302;2024-03-22T12:25:20;5.70;;;3.38;;
86403;SDS011;77050;48.738;9.302;2024-03-22T12:27:48;6.38;;;3.92;;
86403;SDS011;77050;48.738;9.302;2024-03-22T12:30:14;5.20;;;3.20;;
86403;SDS011;77050;48.738;9.302;2024-03-22T12:32:40;6.13;;;2.92;;
86403;SDS011;77050;48.738;9.302;2024-03-22T12:35:06;5.85;;;2.88;;
86403;SDS011;77050;48.738;9.302;2024-03-22T12:37:32;6.43;;;3.42;;
86403;SDS011;77050;48.738;9.302;2024-03-22T12:39:57;5.20;;;2.75;;
86403;SDS011;77050;48.738;9.302;2024-03-22T12:42:29;5.65;;;3.20;;
86403;SDS011;77050;48.738;9.302;2024-03-22T12:44:55;3.42;;;2.60;;
86403;SDS011;77050;48.738;9.302;2024-03-22T12:47:20;6.68;;;2.55;;
86403;SDS011;77050;48.738;9.302;2024-03-22T12:49:45;7.30;;;2.92;;
86403;SDS011;77050;48.738;9.302;2024-03-22T12:52:10;4.10;;;2.87;;
86403;SDS011;77050;48.738;9.302;2024-03-22T12:54:36;5.10;;;3.00;;
86403;SDS011;77050;48.738;9.302;2024-03-22T12:57:01;6.37;;;2.60;;
86403;SDS011;77050;48.738;9.302;2024-03-22T12:59:36;5.78;;;2.95;;
86403;SDS011;77050;48.738;9.302;2024-03-22T13:02:02;5.90;;;3.10;;
86403;SDS011;77050;48.738;9.302;2024-03-22T13:04:27;5.20;;;2.75;;
86403;SDS011;77050;48.738;9.302;2024-03-22T13:06:52;6.47;;;3.08;;
86403;SDS011;77050;48.738;9.302;2024-03-22T13:09:20;3.50;;;2.95;;
86403;SDS011;77050;48.738;9.302;2024-03-22T13:11:46;6.07;;;3.33;;
86403;SDS011;77050;48.738;9.302;2024-03-22T13:14:12;6.68;;;2.90;;
86403;SDS011;77050;48.738;9.302;2024-03-22T13:16:45;3.95;;;2.30;;
86403;SDS011;77050;48.738;9.302;2024-03-22T13:19:11;4.82;;;2.85;;
86403;SDS011;77050;48.738;9.302;2024-03-22T13:21:38;5.82;;;3.13;;
86403;SDS011;77050;48.738;9.302;2024-03-22T13:24:04;6.35;;;2.60;;
86403;SDS011;77050;48.738;9.302;2024-03-22T13:26:29;4.45;;;3.33;;
86403;SDS011;77050;48.738;9.302;2024-03-22T13:28:54;6.77;;;3.00;;
86403;SDS011;77050;48.738;9.302;2024-03-22T13:31:20;6.80;;;2.88;;
86403;SDS011;77050;48.738;9.302;2024-03-22T13:33:45;4.07;;;2.63;;
86403;SDS011;77050;48.738;9.302;2024-03-22T13:36:12;7.22;;;2.67;;
86403;SDS011;77050;48.738;9.302;2024-03-22T13:38:37;6.93;;;2.63;;
86403;SDS011;77050;48.738;9.302;2024-03-22T13:41:02;4.35;;;2.63;;
86403;SDS011;77050;48.738;9.302;2024-03-22T13:43:29;6.65;;;3.40;;
86403;SDS011;77050;48.738;9.302;2024-03-22T13:45:54;4.40;;;2.42;;
86403;SDS011;77050;48.738;9.302;2024-03-22T13:48:23;8.13;;;4.20;;
86403;SDS011;77050;48.738;9.302;2024-03-22T13:50:56;5.20;;;2.80;;
86403;SDS011;77050;48.738;9.302;2024-03-22T13:53:22;6.85;;;3.10;;
86403;SDS011;77050;48.738;9.302;2024-03-22T13:55:48;4.68;;;2.83;;
86403;SDS011;77050;48.738;9.302;2024-03-22T13:58:14;6.40;;;2.95;;
86403;SDS011;77050;48.738;9.302;2024-03-22T14:00:39;5.75;;;3.40;;
86403;SDS011;77050;48.738;9.302;2024-03-22T14:03:05;5.78;;;2.83;;
86403;SDS011;77050;48.738;9.302;2024-03-22T14:05:30;4.43;;;2.90;;
86403;SDS011;77050;48.738;9.302;2024-03-22T14:07:56;4.38;;;3.05;;
86403;SDS011;77050;48.738;9.302;2024-03-22T14:10:22;4.25;;;2.25;;
86403;SDS011;77050;48.738;9.302;2024-03-22T14:12:50;5.00;;;3.05;;
86403;SDS011;77050;48.738;9.302;2024-03-22T14:15:15;7.35;;;2.50;;
86403;SDS011;77050;48.738;9.302;2024-03-22T14:17:41;3.38;;;2.10;;
86403;SDS011;77050;48.738;9.302;2024-03-22T14:20:06;3.83;;;2.10;;
86403;SDS011;77050;48.738;9.302;2024-03-22T14:22:37;5.57;;;2.20;;
86403;SDS011;77050;48.738;9.302;2024-03-22T14:25:06;4.93;;;2.50;;
86403;SDS011;77050;48.738;9.302;2024-03-22T14:27:34;4.25;;;2.38;;
86403;SDS011;77050;48.738;9.302;2024-03-22T14:30:00;4.25;;;2.30;;
86403;SDS011;77050;48.738;9.302;2024-03-22T14:32:26;4.82;;;2.63;;
86403;SDS011;77050;48.738;9.302;2024-03-22T14:34:52;5.80;;;2.43;;
86403;SDS011;77050;48.738;9.302;2024-03-22T14:37:17;4.32;;;2.17;;
86403;SDS011;77050;48.738;9.302;2024-03-22T14:39:42;5.75;;;2.90;;
86403;SDS011;77050;48.738;9.302;2024-03-22T14:42:08;4.38;;;2.15;;
86403;SDS011;77050;48.738;9.302;2024-03-22T14:44:33;5.78;;;3.05;;
86403;SDS011;77050;48.738;9.302;2024-03-22T14:47:01;5.93;;;2.30;;
86403;SDS011;77050;48.738;9.302;2024-03-22T14:49:26;4.60;;;2.92;;
86403;SDS011;77050;48.738;9.302;2024-03-22T14:51:52;8.02;;;3.45;;
86403;SDS011;77050;48.738;9.302;2024-03-22T14:54:17;5.03;;;3.10;;
86403;SDS011;77050;48.738;9.302;2024-03-22T14:56:42;5.97;;;2.75;;
86403;SDS011;77050;48.738;9.302;2024-03-22T14:59:08;5.20;;;2.58;;
86403;SDS011;77050;48.738;9.302;2024-03-22T15:01:33;6.60;;;2.92;;
86403;SDS011;77050;48.738;9.302;2024-03-22T15:04:00;6.85;;;3.15;;
86403;SDS011;77050;48.738;9.302;2024-03-22T15:06:25;5.00;;;2.80;;
86403;SDS011;77050;48.738;9.302;2024-03-22T15:08:53;5.35;;;2.78;;
86403;SDS011;77050;48.738;9.302;2024-03-22T15:11:19;6.03;;;3.03;;
86403;SDS011;77050;48.738;9.302;2024-03-22T15:13:44;6.72;;;3.65;;
86403;SDS011;77050;48.738;9.302;2024-03-22T15:16:10;6.05;;;2.83;;
86403;SDS011;77050;48.738;9.302;2024-03-22T15:18:35;6.38;;;2.42;;
86403;SDS011;77050;48.738;9.302;2024-03-22T15:21:01;3.92;;;2.00;;
86403;SDS011;77050;48.738;9.302;2024-03-22T15:23:26;5.57;;;2.03;;
86403;SDS011;77050;48.738;9.302;2024-03-22T15:25:51;5.57;;;1.65;;
86403;SDS011;77050;48.738;9.302;2024-03-22T15:28:17;4.47;;;1.88;;
86403;SDS011;77050;48.738;9.302;2024-03-22T15:30:43;3.40;;;1.67;;
86403;SDS011;77050;48.738;9.302;2024-03-22T15:33:09;3.53;;;1.58;;
86403;SDS011;77050;48.738;9.302;2024-03-22T15:35:35;2.90;;;1.75;;
86403;SDS011;77050;48.738;9.302;2024-03-22T15:38:00;3.58;;;1.48;;
86403;SDS011;77050;48.738;9.302;2024-03-22T15:40:28;3.38;;;1.80;;
86403;SDS011;77050;48.738;9.302;2024-03-22T15:42:53;5.53;;;3.05;;
86403;SDS011;77050;48.738;9.302;2024-03-22T15:45:19;6.32;;;2.20;;
86403;SDS011;77050;48.738;9.302;2024-03-22T15:47:44;3.65;;;1.88;;
86403;SDS011;77050;48.738;9.302;2024-03-22T15:50:10;4.07;;;1.80;;
86403;SDS011;77050;48.738;9.302;2024-03-22T15:52:35;2.45;;;1.30;;
86403;SDS011;77050;48.738;9.302;2024-03-22T15:55:01;2.67;;;1.33;;
86403;SDS011;77050;48.738;9.302;2024-03-22T15:57:27;3.15;;;1.10;;
86403;SDS011;77050;48.738;9.302;2024-03-22T15:59:53;4.63;;;2.60;;
86403;SDS011;77050;48.738;9.302;2024-03-22T16:02:18;3.47;;;1.58;;
86403;SDS011;77050;48.738;9.302;2024-03-22T16:04:44;4.63;;;1.33;;
86403;SDS011;77050;48.738;9.302;2024-03-22T16:07:09;4.28;;;1.73;;
86403;SDS011;77050;48.738;9.302;2024-03-22T16:09:36;5.18;;;2.03;;
86403;SDS011;77050;48.738;9.302;2024-03-22T16:12:02;4.30;;;1.60;;
86403;SDS011;77050;48.738;9.302;2024-03-22T16:14:28;2.58;;;1.48;;
86403;SDS011;77050;48.738;9.302;2024-03-22T16:16:54;2.78;;;1.60;;
86403;SDS011;77050;48.738;9.302;2024-03-22T16:19:20;3.42;;;1.42;;
86403;SDS011;77050;48.738;9.302;2024-03-22T16:21:45;4.65;;;1.65;;
86403;SDS011;77050;48.738;9.302;2024-03-22T16:24:11;4.85;;;1.20;;
86403;SDS011;77050;48.738;9.302;2024-03-22T16:26:36;4.03;;;1.70;;
86403;SDS011;77050;48.738;9.302;2024-03-22T16:29:01;1.98;;;1.20;;
86403;SDS011;77050;48.738;9.302;2024-03-22T16:31:28;2.33;;;1.45;;
86403;SDS011;77050;48.738;9.302;2024-03-22T16:33:54;5.10;;;2.10;;
86403;SDS011;77050;48.738;9.302;2024-03-22T16:36:19;2.58;;;1.58;;
86403;SDS011;77050;48.738;9.302;2024-03-22T16:38:44;2.97;;;1.30;;
86403;SDS011;77050;48.738;9.302;2024-03-22T16:41:10;3.88;;;1.55;;
86403;SDS011;77050;48.738;9.302;2024-03-22T16:43:35;3.90;;;1.92;;
86403;SDS011;77050;48.738;9.302;2024-03-22T16:46:03;3.35;;;2.25;;
86403;SDS011;77050;48.738;9.302;2024-03-22T16:48:28;6.05;;;3.40;;
86403;SDS011;77050;48.738;9.302;2024-03-22T16:50:54;3.25;;;2.28;;
86403;SDS011;77050;48.738;9.302;2024-03-22T16:53:21;3.47;;;1.50;;
86403;SDS011;77050;48.738;9.302;2024-03-22T16:55:47;3.60;;;1.55;;
86403;SDS011;77050;48.738;9.302;2024-03-22T16:58:12;3.17;;;1.92;;
86403;SDS011;77050;48.738;9.302;2024-03-22T17:00:37;3.58;;;1.75;;
86403;SDS011;77050;48.738;9.302;2024-03-22T17:03:03;3.25;;;1.45;;
86403;SDS011;77050;48.738;9.302;2024-03-22T17:05:32;2.90;;;1.60;;
86403;SDS011;77050;48.738;9.302;2024-03-22T17:07:58;3.92;;;1.67;;
86403;SDS011;77050;48.738;9.302;2024-03-22T17:10:24;4.72;;;2.05;;
86403;SDS011;77050;48.738;9.302;2024-03-22T17:12:49;5.28;;;2.40;;
86403;SDS011;77050;48.738;9.302;2024-03-22T17:15:15;3.42;;;1.88;;
86403;SDS011;77050;48.738;9.302;2024-03-22T17:17:40;4.13;;;1.95;;
86403;SDS011;77050;48.738;9.302;2024-03-22T17:20:06;3.30;;;1.93;;
86403;SDS011;77050;48.738;9.302;2024-03-22T17:22:31;5.85;;;2.97;;
86403;SDS011;77050;48.738;9.302;2024-03-22T17:24:58;5.03;;;2.65;;
86403;SDS011;77050;48.738;9.302;2024-03-22T17:27:25;3.88;;;2.17;;
86403;SDS011;77050;48.738;9.302;2024-03-22T17:29:50;3.08;;;2.22;;
86403;SDS011;77050;48.738;9.302;2024-03-22T17:32:16;6.50;;;1.98;;
86403;SDS011;77050;48.738;9.302;2024-03-22T17:34:41;4.45;;;1.90;;
86403;SDS011;77050;48.738;9.302;2024-03-22T17:37:07;3.38;;;1.60;;
86403;SDS011;77050;48.738;9.302;2024-03-22T17:39:35;5.55;;;1.88;;
86403;SDS011;77050;48.738;9.302;2024-03-22T17:42:00;4.65;;;2.47;;
86403;SDS011;77050;48.738;9.302;2024-03-22T17:44:27;7.72;;;3.08;;
86403;SDS011;77050;48.738;9.302;2024-03-22T17:46:53;3.50;;;2.15;;
86403;SDS011;77050;48.738;9.302;2024-03-22T17:49:18;5.03;;;2.22;;
86403;SDS011;77050;48.738;9.302;2024-03-22T17:51:44;5.88;;;2.80;;
86403;SDS011;77050;48.738;9.302;2024-03-22T17:54:10;7.93;;;3.80;;
86403;SDS011;77050;48.738;9.302;2024-03-22T17:56:35;6.13;;;3.60;;
86403;SDS011;77050;48.738;9.302;2024-03-22T17:59:02;5.30;;;2.38;;
86403;SDS011;77050;48.738;9.302;2024-03-22T18:01:27;3.97;;;2.13;;
86403;SDS011;77050;48.738;9.302;2024-03-22T18:03:53;6.15;;;2.80;;
86403;SDS011;77050;48.738;9.302;2024-03-22T18:06:18;6.68;;;2.85;;
86403;SDS011;77050;48.738;9.302;2024-03-22T18:08:44;7.78;;;4.28;;
86403;SDS011;77050;48.738;9.302;2024-03-22T18:11:12;5.28;;;2.72;;
86403;SDS011;77050;48.738;9.302;2024-03-22T18:13:38;6.97;;;3.85;;
86403;SDS011;77050;48.738;9.302;2024-03-22T18:16:04;7.60;;;4.07;;
86403;SDS011;77050;48.738;9.302;2024-03-22T18:18:30;6.45;;;3.47;;
86403;SDS011;77050;48.738;9.302;2024-03-22T18:20:56;7.32;;;3.50;;
86403;SDS011;77050;48.738;9.302;2024-03-22T18:23:22;4.25;;;3.03;;
86403;SDS011;77050;48.738;9.302;2024-03-22T18:25:47;5.80;;;2.67;;
86403;SDS011;77050;48.738;9.302;2024-03-22T18:28:13;4.22;;;2.60;;
86403;SDS011;77050;48.738;9.302;2024-03-22T18:30:41;7.03;;;3.85;;
86403;SDS011;77050;48.738;9.302;2024-03-22T18:33:07;10.45;;;3.20;;
86403;SDS011;77050;48.738;9.302;2024-03-22T18:35:32;6.82;;;3.53;;
86403;SDS011;77050;48.738;9.302;2024-03-22T18:37:58;9.57;;;3.72;;
86403;SDS011;77050;48.738;9.302;2024-03-22T18:40:24;9.73;;;3.90;;
86403;SDS011;77050;48.738;9.302;2024-03-22T18:42:49;8.35;;;3.60;;
86403;SDS011;77050;48.738;9.302;2024-03-22T18:45:15;10.13;;;3.70;;
86403;SDS011;77050;48.738;9.302;2024-03-22T18:47:42;8.07;;;3.95;;
86403;SDS011;77050;48.738;9.302;2024-03-22T18:50:08;13.85;;;4.13;;
86403;SDS011;77050;48.738;9.302;2024-03-22T18:52:37;7.50;;;4.22;;
86403;SDS011;77050;48.738;9.302;2024-03-22T18:55:03;7.13;;;4.57;;
86403;SDS011;77050;48.738;9.302;2024-03-22T18:57:29;7.13;;;4.50;;
86403;SDS011;77050;48.738;9.302;2024-03-22T18:59:54;9.02;;;4.20;;
86403;SDS011;77050;48.738;9.302;2024-03-22T19:02:20;8.40;;;4.68;;
86403;SDS011;77050;48.738;9.302;2024-03-22T19:04:46;7.40;;;4.18;;
86403;SDS011;77050;48.738;9.302;2024-03-22T19:07:13;7.90;;;3.67;;
86403;SDS011;77050;48.738;9.302;2024-03-22T19:09:39;9.25;;;3.88;;
86403;SDS011;77050;48.738;9.302;2024-03-22T19:12:04;5.70;;;3.65;;
86403;SDS011;77050;48.738;9.302;2024-03-22T19:14:31;6.68;;;4.05;;
86403;SDS011;77050;48.738;9.302;2024-03-22T19:16:57;6.88;;;3.88;;
86403;SDS011;77050;48.738;9.302;2024-03-22T19:19:22;9.20;;;5.07;;
86403;SDS011;77050;48.738;9.302;2024-03-22T19:21:47;9.88;;;5.65;;
86403;SDS011;77050;48.738;9.302;2024-03-22T19:24:14;6.80;;;4.55;;
86403;SDS011;77050;48.738;9.302;2024-03-22T19:26:39;11.60;;;4.68;;
86403;SDS011;77050;48.738;9.302;2024-03-22T19:29:09;8.45;;;4.20;;